Time;durP1;ratioP1;P1;durP2;ratioP2;P2;SDS_P1;SDS_P2;PMS_P1;PMS_P2;Temp;Humidity;BMP_temperature;BMP_pressure;BME280_temperature;BME280_humidity;BME280_pressure;Samples;Min_cycle;Max_cycle;Signal;HPM_P1;HPM_P2
2022/03/06 05:00:56;;;;;;;18.00;16.10;;;0.90;99.90;;;;;;5734109;23;20549;-68
2022/03/06 05:03:22;;;;;;;18.63;15.70;;;1.00;99.90;;;;;;4976576;28;20452;-66
2022/03/06 05:05:49;;;;;;;17.87;15.80;;;0.90;99.90;;;;;;4976478;28;20508;-67
2022/03/06 05:08:16;;;;;;;17.93;15.40;;;0.90;99.90;;;;;;4976496;28;20546;-66
2022/03/06 05:10:43;;;;;;;17.53;15.63;;;0.80;99.90;;;;;;4976338;28;20477;-66
2022/03/06 05:13:10;;;;;;;18.80;14.37;;;0.90;99.90;;;;;;4976560;28;20858;-65
2022/03/06 05:15:37;;;;;;;18.13;15.57;;;1.00;99.90;;;;;;4976472;28;20460;-66
2022/03/06 05:18:05;;;;;;;19.07;15.60;;;1.00;99.90;;;;;;4976232;28;20463;-66
2022/03/06 05:20:32;;;;;;;19.03;15.53;;;1.00;99.90;;;;;;4976211;28;20486;-67
2022/03/06 05:22:58;;;;;;;18.20;14.80;;;1.00;99.90;;;;;;4976318;28;20465;-66
2022/03/06 05:25:25;;;;;;;20.23;16.37;;;1.00;99.90;;;;;;4976159;28;20478;-66
2022/03/06 05:27:52;;;;;;;16.40;14.60;;;0.90;99.90;;;;;;4976123;28;20464;-66
2022/03/06 05:30:19;;;;;;;18.87;15.53;;;1.00;99.90;;;;;;4976523;28;20449;-66
2022/03/06 05:32:45;;;;;;;16.70;13.60;;;1.00;99.90;;;;;;4976177;28;20464;-66
2022/03/06 05:35:13;;;;;;;17.27;15.13;;;1.10;99.90;;;;;;4975813;28;20485;-67
2022/03/06 05:37:40;;;;;;;19.13;15.67;;;0.90;99.90;;;;;;4975848;28;20467;-65
2022/03/06 05:40:08;;;;;;;20.40;16.93;;;1.00;99.90;;;;;;4975731;28;20464;-67
2022/03/06 05:42:35;;;;;;;18.70;15.57;;;1.00;99.90;;;;;;4976200;28;20469;-67
2022/03/06 05:45:02;;;;;;;17.17;14.90;;;1.10;99.90;;;;;;4975551;28;20477;-67
2022/03/06 05:47:29;;;;;;;19.47;15.50;;;1.20;99.90;;;;;;4975724;28;20459;-67
2022/03/06 05:49:56;;;;;;;18.57;15.47;;;1.30;99.90;;;;;;4975653;28;20464;-67
2022/03/06 05:52:24;;;;;;;19.27;16.70;;;1.20;99.90;;;;;;4975951;28;20482;-67
2022/03/06 05:54:51;;;;;;;20.23;15.90;;;1.20;99.90;;;;;;4975701;28;20460;-66
2022/03/06 05:57:17;;;;;;;18.73;15.90;;;1.10;99.90;;;;;;4975923;28;20456;-67
2022/03/06 05:59:44;;;;;;;17.70;15.63;;;1.10;99.90;;;;;;4976268;28;20459;-67
2022/03/06 06:02:11;;;;;;;19.33;16.10;;;1.00;99.90;;;;;;4975482;28;20492;-67
2022/03/06 06:04:37;;;;;;;19.00;16.63;;;0.80;99.90;;;;;;4975363;28;20866;-66
2022/03/06 06:07:04;;;;;;;21.53;17.17;;;0.80;99.90;;;;;;4975824;28;21000;-67
2022/03/06 06:09:32;;;;;;;19.37;16.83;;;0.80;99.90;;;;;;4975478;28;20461;-67
2022/03/06 06:11:59;;;;;;;17.93;16.00;;;0.70;99.90;;;;;;4975410;28;20521;-65
2022/03/06 06:14:26;;;;;;;18.90;16.27;;;0.70;99.90;;;;;;4975278;28;20471;-67
2022/03/06 06:16:52;;;;;;;18.30;16.40;;;0.70;99.90;;;;;;4978393;28;20465;-67
2022/03/06 06:19:19;;;;;;;20.27;16.13;;;0.80;99.90;;;;;;4978814;28;20536;-68
2022/03/06 06:21:46;;;;;;;18.30;16.40;;;0.90;99.90;;;;;;4976026;28;20483;-66
2022/03/06 06:24:13;;;;;;;19.93;17.07;;;0.80;99.90;;;;;;4976186;28;20458;-68
2022/03/06 06:26:41;;;;;;;20.90;17.10;;;0.80;99.90;;;;;;4976032;28;20492;-67
2022/03/06 06:29:09;;;;;;;18.20;16.30;;;0.80;99.90;;;;;;4976053;28;20890;-69
2022/03/06 06:31:36;;;;;;;18.70;16.53;;;0.80;99.90;;;;;;4975827;28;20488;-67
2022/03/06 06:34:02;;;;;;;18.93;16.20;;;0.80;99.90;;;;;;4976136;28;20463;-69
2022/03/06 06:36:29;;;;;;;17.70;15.17;;;0.90;99.90;;;;;;4975973;28;20462;-67
2022/03/06 06:38:56;;;;;;;18.03;15.83;;;1.00;99.90;;;;;;4976008;28;20460;-67
2022/03/06 06:41:23;;;;;;;19.57;15.83;;;1.10;99.90;;;;;;4976036;28;20476;-67
2022/03/06 06:43:51;;;;;;;21.97;16.37;;;1.10;99.90;;;;;;4976051;28;20456;-68
2022/03/06 06:46:18;;;;;;;17.37;15.03;;;1.20;99.90;;;;;;4975994;28;20842;-68
2022/03/06 06:48:45;;;;;;;19.70;17.13;;;1.20;99.90;;;;;;4980276;28;20465;-68
2022/03/06 06:51:11;;;;;;;19.43;16.20;;;1.30;99.90;;;;;;4979127;28;21002;-67
2022/03/06 06:53:38;;;;;;;18.70;16.70;;;1.40;99.90;;;;;;4980019;28;20462;-68
2022/03/06 06:56:06;;;;;;;18.33;15.27;;;1.40;99.90;;;;;;4979542;28;20821;-68
2022/03/06 06:58:32;;;;;;;18.17;16.27;;;1.50;99.90;;;;;;4980181;28;20459;-68
2022/03/06 07:01:00;;;;;;;21.40;15.20;;;2.00;99.90;;;;;;4979723;28;20536;-67
2022/03/06 07:03:27;;;;;;;16.07;13.90;;;2.50;99.90;;;;;;4979456;28;20464;-66
2022/03/06 07:05:55;;;;;;;18.60;14.30;;;3.20;99.90;;;;;;4979383;28;20472;-66
2022/03/06 07:08:22;;;;;;;16.13;13.47;;;3.60;99.90;;;;;;4978773;28;20530;-65
2022/03/06 07:10:49;;;;;;;14.83;13.03;;;4.40;99.90;;;;;;4978676;28;20550;-66
2022/03/06 07:13:17;;;;;;;15.47;13.70;;;5.00;96.20;;;;;;4978486;28;20456;-67
2022/03/06 07:15:43;;;;;;;14.50;12.67;;;5.70;94.00;;;;;;4978703;28;20469;-66
2022/03/06 07:18:12;;;;;;;17.83;13.70;;;6.20;91.00;;;;;;4978660;28;20454;-66
2022/03/06 07:20:38;;;;;;;14.37;11.70;;;6.70;89.80;;;;;;4978356;28;20905;-66
2022/03/06 07:23:05;;;;;;;15.83;12.17;;;6.80;88.30;;;;;;4978705;28;20459;-66
2022/03/06 07:25:32;;;;;;;16.60;13.23;;;7.40;85.20;;;;;;4979453;28;20834;-67
2022/03/06 07:27:59;;;;;;;15.00;12.40;;;7.70;81.00;;;;;;4978887;28;20455;-66
2022/03/06 07:30:25;;;;;;;13.73;12.23;;;8.40;78.70;;;;;;4978341;28;20455;-66
2022/03/06 07:32:53;;;;;;;15.13;13.50;;;8.30;77.00;;;;;;4978165;28;20824;-66
2022/03/06 07:35:22;;;;;;;14.57;12.53;;;8.40;75.60;;;;;;4978327;28;20451;-66
2022/03/06 07:37:50;;;;;;;17.57;14.63;;;9.00;75.50;;;;;;4978273;28;20455;-67
2022/03/06 07:40:19;;;;;;;14.90;13.40;;;9.50;73.20;;;;;;4978617;28;20957;-67
2022/03/06 07:42:46;;;;;;;14.93;13.40;;;9.70;70.40;;;;;;4978346;28;20461;-67
2022/03/06 07:45:13;;;;;;;14.80;13.30;;;9.90;70.30;;;;;;4977898;28;20854;-67
2022/03/06 07:47:40;;;;;;;15.60;14.10;;;9.90;66.40;;;;;;4983960;28;20815;-66
2022/03/06 07:50:09;;;;;;;15.80;14.10;;;10.10;65.50;;;;;;4986161;28;20462;-67
2022/03/06 07:52:38;;;;;;;16.20;14.50;;;10.50;66.00;;;;;;4978211;28;20795;-67
2022/03/06 07:55:06;;;;;;;16.23;14.53;;;10.70;63.30;;;;;;4977755;28;20459;-66
2022/03/06 07:57:33;;;;;;;18.33;15.03;;;11.10;63.40;;;;;;4978374;28;20459;-65
2022/03/06 08:00:00;;;;;;;15.40;13.57;;;10.50;62.10;;;;;;4977674;28;20455;-66
2022/03/06 08:02:27;;;;;;;15.60;14.00;;;11.30;61.80;;;;;;4977409;28;20487;-66
2022/03/06 08:04:54;;;;;;;15.77;14.00;;;11.50;61.20;;;;;;4977181;28;20843;-66
2022/03/06 08:07:20;;;;;;;16.40;14.70;;;11.50;59.60;;;;;;4978203;28;20482;-66
2022/03/06 08:09:48;;;;;;;16.03;13.80;;;11.80;59.80;;;;;;4977579;28;20466;-66
2022/03/06 08:12:15;;;;;;;15.57;13.97;;;12.10;58.60;;;;;;4977053;28;20890;-66
2022/03/06 08:14:42;;;;;;;16.37;14.67;;;11.80;59.30;;;;;;4977653;28;20458;-65
2022/03/06 08:17:08;;;;;;;16.73;15.03;;;12.30;59.60;;;;;;4977207;28;20458;-66
2022/03/06 08:19:35;;;;;;;14.57;13.17;;;12.60;58.70;;;;;;4977353;28;20455;-67
2022/03/06 08:22:02;;;;;;;16.03;14.43;;;13.00;57.70;;;;;;4981065;28;20479;-66
2022/03/06 08:24:30;;;;;;;17.43;15.03;;;13.20;56.50;;;;;;4982373;28;20455;-66
2022/03/06 08:26:58;;;;;;;15.83;14.17;;;13.00;56.40;;;;;;4977011;28;20810;-66
2022/03/06 08:29:25;;;;;;;15.37;13.93;;;11.90;55.90;;;;;;4978838;28;20942;-67
2022/03/06 08:31:52;;;;;;;16.30;14.67;;;11.60;57.40;;;;;;4983279;28;20478;-65
2022/03/06 08:34:18;;;;;;;15.40;13.90;;;11.30;57.80;;;;;;4983173;28;20454;-66
2022/03/06 08:36:45;;;;;;;17.13;15.33;;;11.70;58.30;;;;;;4983104;28;20455;-66
2022/03/06 08:39:12;;;;;;;17.00;13.23;;;11.70;58.00;;;;;;4979713;28;20458;-66
2022/03/06 08:41:38;;;;;;;16.50;14.90;;;11.70;58.10;;;;;;4979134;28;20480;-67
2022/03/06 08:44:07;;;;;;;15.70;14.10;;;12.40;58.50;;;;;;4977235;28;20451;-66
2022/03/06 08:46:33;;;;;;;15.50;13.87;;;12.90;57.10;;;;;;4976563;28;20474;-65
2022/03/06 08:49:00;;;;;;;15.80;14.10;;;11.90;56.10;;;;;;4977028;28;20569;-66
2022/03/06 08:51:27;;;;;;;19.13;13.87;;;12.00;58.00;;;;;;4977572;28;20478;-66
2022/03/06 08:53:53;;;;;;;14.87;13.47;;;12.10;55.90;;;;;;4976892;28;20455;-68
2022/03/06 08:56:21;;;;;;;16.57;14.83;;;13.30;55.60;;;;;;4976826;28;20468;-67
2022/03/06 08:58:48;;;;;;;14.93;13.43;;;13.60;54.50;;;;;;4978136;28;20455;-66
2022/03/06 09:01:16;;;;;;;16.67;14.33;;;13.70;53.20;;;;;;4976691;28;20498;-67
2022/03/06 09:03:43;;;;;;;15.03;13.53;;;14.10;53.50;;;;;;4976247;28;20938;-66
2022/03/06 09:06:10;;;;;;;15.37;13.87;;;14.50;53.50;;;;;;4976217;28;20842;-66
2022/03/06 09:08:37;;;;;;;17.30;15.50;;;14.10;53.10;;;;;;4976618;28;20450;-67
2022/03/06 09:11:05;;;;;;;15.67;14.17;;;14.30;51.90;;;;;;4975526;28;20475;-66
2022/03/06 09:13:32;;;;;;;15.77;14.17;;;14.60;51.80;;;;;;4976205;28;20455;-66
2022/03/06 09:15:59;;;;;;;15.93;14.43;;;15.50;51.20;;;;;;4976920;28;20462;-66
2022/03/06 09:18:27;;;;;;;16.20;14.60;;;16.00;50.90;;;;;;4976591;28;20466;-66
2022/03/06 09:20:54;;;;;;;15.40;13.90;;;16.30;50.40;;;;;;4979649;28;20482;-67
2022/03/06 09:23:20;;;;;;;15.80;14.40;;;16.30;48.90;;;;;;4978492;28;20455;-66
2022/03/06 09:25:47;;;;;;;15.10;13.67;;;15.90;48.80;;;;;;4975777;28;20979;-67
2022/03/06 09:28:14;;;;;;;15.93;14.43;;;15.60;48.60;;;;;;4976104;28;20458;-68
2022/03/06 09:30:42;;;;;;;17.67;15.90;;;14.60;49.40;;;;;;4975834;28;20493;-67
2022/03/06 09:33:09;;;;;;;15.50;14.17;;;15.30;50.40;;;;;;4977684;28;20455;-66
2022/03/06 09:35:37;;;;;;;15.63;14.23;;;16.00;48.90;;;;;;4976936;28;20478;-67
2022/03/06 09:38:04;;;;;;;16.03;14.43;;;16.20;48.70;;;;;;4975837;28;20454;-67
2022/03/06 09:40:31;;;;;;;16.10;14.50;;;16.10;46.90;;;;;;4975448;28;20945;-66
2022/03/06 09:42:58;;;;;;;17.23;15.60;;;15.90;47.50;;;;;;4975584;28;20459;-66
2022/03/06 09:45:25;;;;;;;14.17;12.87;;;16.40;48.30;;;;;;4975826;28;20462;-67
2022/03/06 09:47:53;;;;;;;16.30;14.70;;;16.20;46.80;;;;;;4975663;28;20486;-67
2022/03/06 09:50:20;;;;;;;15.60;14.10;;;15.10;47.00;;;;;;4975164;28;20553;-67
2022/03/06 09:52:48;;;;;;;16.43;14.83;;;15.20;47.70;;;;;;4975874;28;20554;-66
2022/03/06 09:55:15;;;;;;;15.23;13.83;;;14.10;48.00;;;;;;4975354;28;20451;-67
2022/03/06 09:57:42;;;;;;;16.67;15.07;;;14.30;49.20;;;;;;4975291;28;20451;-66
2022/03/06 10:00:11;;;;;;;16.53;14.87;;;15.00;49.40;;;;;;4975383;28;20459;-66
2022/03/06 10:02:54;;;;;;;16.70;14.90;;;15.00;48.70;;;;;;4975284;28;20446;-66
2022/03/06 10:05:27;;;;;;;16.70;14.33;;;13.50;47.30;;;;;;4975074;28;20451;-66
2022/03/06 10:08:21;;;;;;;16.20;14.50;;;13.10;48.40;;;;;;4975331;28;20485;-66
2022/03/06 10:10:50;;;;;;;17.03;14.23;;;13.00;53.10;;;;;;4981448;28;20502;-66
2022/03/06 10:13:26;;;;;;;17.20;14.80;;;13.80;50.90;;;;;;4989578;28;20455;-67
2022/03/06 10:16:01;;;;;;;14.70;13.30;;;14.00;48.90;;;;;;4976327;28;20509;-66
2022/03/06 10:18:31;;;;;;;15.07;13.47;;;13.00;47.00;;;;;;4975169;28;20541;-66
2022/03/06 10:21:03;;;;;;;16.63;14.80;;;12.80;50.40;;;;;;4975174;28;20538;-67
2022/03/06 10:23:31;;;;;;;15.80;14.10;;;12.60;48.70;;;;;;4978503;28;20441;-66
2022/03/06 10:26:02;;;;;;;17.00;15.10;;;11.10;50.20;;;;;;4979694;28;20458;-66
2022/03/06 10:28:28;;;;;;;14.03;12.63;;;10.10;51.90;;;;;;4979323;28;20455;-67
2022/03/06 10:31:02;;;;;;;16.50;13.27;;;9.50;53.80;;;;;;4979095;28;20474;-65
2022/03/06 10:33:29;;;;;;;15.37;12.00;;;8.90;53.80;;;;;;4980640;28;20443;-66
2022/03/06 10:35:58;;;;;;;13.53;12.10;;;8.80;54.20;;;;;;4979576;28;20459;-65
2022/03/06 10:38:27;;;;;;;13.63;11.77;;;8.50;53.80;;;;;;4979730;28;20457;-66
2022/03/06 10:40:56;;;;;;;13.23;11.57;;;8.50;54.90;;;;;;4979282;28;20482;-67
2022/03/06 10:43:25;;;;;;;14.23;12.17;;;8.50;55.40;;;;;;4978898;28;20451;-65
2022/03/06 10:46:06;;;;;;;13.60;11.40;;;8.30;54.30;;;;;;4979376;28;20463;-65
2022/03/06 10:48:32;;;;;;;13.70;11.20;;;8.40;54.20;;;;;;4979341;28;20433;-65
2022/03/06 10:51:00;;;;;;;12.60;11.20;;;8.50;54.50;;;;;;4980426;28;20586;-66
2022/03/06 10:53:28;;;;;;;13.43;10.57;;;8.80;54.10;;;;;;4983887;28;20458;-66
2022/03/06 10:55:56;;;;;;;12.47;11.27;;;9.90;53.60;;;;;;4981454;28;20821;-66
2022/03/06 10:58:23;;;;;;;13.23;11.40;;;10.50;50.60;;;;;;4979835;28;20453;-66
2022/03/06 11:00:50;;;;;;;11.50;10.20;;;9.90;49.60;;;;;;4980558;28;20487;-66
2022/03/06 11:03:16;;;;;;;11.50;10.40;;;9.40;50.50;;;;;;4980789;28;20457;-67
2022/03/06 11:05:44;;;;;;;11.73;10.50;;;9.00;50.80;;;;;;4981652;28;20451;-65
2022/03/06 11:08:15;;;;;;;12.02;10.82;;;9.30;52.20;;;;;;4981014;28;20473;-65
2022/03/06 11:10:43;;;;;;;12.03;10.63;;;10.00;52.50;;;;;;4982061;28;20622;-65
2022/03/06 11:13:13;;;;;;;13.43;12.03;;;10.90;50.10;;;;;;4980651;28;20493;-64
2022/03/06 11:15:40;;;;;;;13.77;12.37;;;11.30;48.90;;;;;;4982817;28;20491;-65
2022/03/06 11:18:08;;;;;;;12.50;11.30;;;11.80;49.40;;;;;;4981949;28;21001;-65
2022/03/06 11:20:36;;;;;;;13.60;9.83;;;12.00;47.80;;;;;;4982875;28;20482;-67
2022/03/06 11:23:13;;;;;;;14.00;11.50;;;11.30;47.40;;;;;;4985507;28;20439;-64
2022/03/06 11:25:52;;;;;;;10.73;9.63;;;11.10;47.50;;;;;;4979503;28;20443;-64
2022/03/06 11:28:27;;;;;;;11.20;10.20;;;11.00;47.30;;;;;;4982007;28;20467;-65
2022/03/06 11:30:58;;;;;;;10.90;9.90;;;10.40;48.90;;;;;;4981599;28;20640;-65
2022/03/06 11:33:25;;;;;;;11.13;10.03;;;10.50;49.00;;;;;;4979180;28;20941;-65
2022/03/06 11:35:51;;;;;;;14.80;10.60;;;10.20;48.70;;;;;;4980796;28;20455;-64
2022/03/06 11:38:20;;;;;;;10.70;9.67;;;10.30;48.10;;;;;;4981135;28;20478;-64
2022/03/06 11:40:49;;;;;;;11.23;10.03;;;10.30;48.80;;;;;;4982022;28;20530;-64
2022/03/06 11:43:43;;;;;;;10.97;9.87;;;10.10;47.50;;;;;;4981520;28;20938;-64
2022/03/06 11:46:14;;;;;;;11.00;9.90;;;9.60;48.90;;;;;;4983497;28;20443;-64
2022/03/06 11:49:11;;;;;;;10.87;9.87;;;9.20;49.50;;;;;;4981959;28;20435;-64
2022/03/06 11:51:46;;;;;;;10.47;9.37;;;9.80;49.70;;;;;;4982966;28;20558;-65
2022/03/06 11:54:15;;;;;;;11.40;10.20;;;9.90;50.30;;;;;;4983835;28;20446;-65
2022/03/06 11:57:00;;;;;;;10.47;9.43;;;10.10;49.50;;;;;;4984415;28;20443;-64
2022/03/06 11:59:34;;;;;;;10.03;9.03;;;10.40;48.90;;;;;;4989001;28;20431;-64
2022/03/06 12:02:05;;;;;;;11.20;10.03;;;11.10;50.20;;;;;;4992741;28;20518;-65
2022/03/06 12:04:34;;;;;;;11.63;10.43;;;11.60;46.90;;;;;;4991317;28;20507;-64
2022/03/06 12:07:02;;;;;;;11.67;10.50;;;11.30;46.60;;;;;;4990294;28;20482;-65
2022/03/06 12:09:31;;;;;;;12.33;11.03;;;10.80;47.70;;;;;;4987469;28;20455;-65
2022/03/06 12:12:00;;;;;;;11.03;9.93;;;10.40;46.60;;;;;;4991804;28;20467;-65
2022/03/06 12:14:31;;;;;;;11.57;10.47;;;10.30;46.80;;;;;;4993736;28;20451;-65
2022/03/06 12:17:22;;;;;;;11.70;9.77;;;10.50;47.70;;;;;;4991097;28;20895;-65
2022/03/06 12:20:18;;;;;;;9.97;9.03;;;10.50;48.10;;;;;;4991928;28;20454;-65
2022/03/06 12:22:47;;;;;;;10.97;9.87;;;10.90;48.50;;;;;;4991331;28;20443;-65
2022/03/06 12:25:19;;;;;;;11.13;10.00;;;10.80;47.00;;;;;;4992339;28;20466;-66
2022/03/06 12:28:19;;;;;;;10.93;9.83;;;10.80;47.50;;;;;;4985039;28;20479;-64
2022/03/06 12:30:46;;;;;;;11.33;10.23;;;10.30;47.10;;;;;;4979983;28;21000;-64
2022/03/06 12:33:35;;;;;;;12.63;10.40;;;9.50;49.10;;;;;;4980246;28;20461;-65
2022/03/06 12:36:21;;;;;;;10.67;9.57;;;9.10;50.20;;;;;;4982121;28;20443;-64
2022/03/06 12:38:53;;;;;;;11.90;10.10;;;8.80;50.60;;;;;;4983004;28;20426;-65
2022/03/06 12:41:20;;;;;;;11.13;10.03;;;8.70;50.40;;;;;;4981169;28;20506;-65
2022/03/06 12:43:49;;;;;;;10.60;9.50;;;8.40;50.00;;;;;;4984596;28;20470;-65
2022/03/06 12:46:18;;;;;;;10.50;9.00;;;8.50;50.00;;;;;;4978617;28;20984;-65
2022/03/06 12:48:49;;;;;;;11.37;10.27;;;8.30;49.60;;;;;;4978500;28;20534;-65
2022/03/06 12:51:32;;;;;;;10.77;9.77;;;8.20;51.10;;;;;;4979422;28;20478;-65
2022/03/06 12:53:59;;;;;;;11.87;10.73;;;8.40;51.30;;;;;;4978792;28;20454;-65
2022/03/06 12:56:38;;;;;;;10.07;9.17;;;8.40;51.10;;;;;;4981023;28;20532;-65
2022/03/06 12:59:17;;;;;;;9.83;8.83;;;8.40;51.30;;;;;;4982476;28;20439;-66
2022/03/06 13:01:46;;;;;;;11.27;10.17;;;8.40;50.60;;;;;;4981810;28;20478;-65
2022/03/06 13:04:16;;;;;;;10.23;9.27;;;8.60;51.50;;;;;;4982126;28;20446;-65
2022/03/06 13:06:43;;;;;;;10.80;9.80;;;8.60;50.60;;;;;;4980158;28;20942;-66
2022/03/06 13:09:23;;;;;;;10.13;9.13;;;8.60;51.30;;;;;;4981548;28;20458;-66
2022/03/06 13:11:52;;;;;;;10.80;9.70;;;8.80;50.90;;;;;;4982564;28;20546;-65
2022/03/06 13:14:27;;;;;;;10.57;9.57;;;8.90;51.40;;;;;;4983678;28;20459;-65
2022/03/06 13:16:57;;;;;;;11.33;10.23;;;9.10;52.30;;;;;;4983112;28;20906;-65
2022/03/06 13:19:26;;;;;;;11.10;10.00;;;9.50;52.20;;;;;;4983928;28;20458;-66
2022/03/06 13:21:53;;;;;;;11.03;9.70;;;10.00;49.10;;;;;;4982212;28;20475;-66
2022/03/06 13:24:20;;;;;;;11.00;10.00;;;10.40;49.20;;;;;;4978338;28;20459;-65
2022/03/06 13:26:47;;;;;;;11.03;9.93;;;10.70;47.80;;;;;;4977082;28;20451;-65
2022/03/06 13:29:15;;;;;;;11.03;9.83;;;10.60;49.00;;;;;;4977635;28;20513;-65
2022/03/06 13:31:46;;;;;;;10.30;9.30;;;10.30;47.20;;;;;;4978004;28;20486;-65
2022/03/06 13:34:15;;;;;;;11.10;10.03;;;10.40;46.80;;;;;;4977727;28;20443;-65
2022/03/06 13:36:45;;;;;;;10.33;9.43;;;10.10;47.80;;;;;;4977016;28;20548;-67
2022/03/06 13:39:16;;;;;;;10.90;9.80;;;10.00;47.90;;;;;;4975647;28;20439;-66
2022/03/06 13:41:53;;;;;;;10.93;9.57;;;10.00;49.30;;;;;;4975494;28;20506;-65
2022/03/06 13:44:20;;;;;;;10.47;9.37;;;10.10;48.40;;;;;;4975480;28;20443;-65
2022/03/06 13:46:47;;;;;;;11.17;10.10;;;9.90;49.40;;;;;;4975865;28;20461;-65
2022/03/06 13:49:15;;;;;;;11.53;10.43;;;9.80;49.70;;;;;;4975185;28;20838;-64
2022/03/06 13:51:44;;;;;;;11.43;10.27;;;9.70;49.70;;;;;;4975551;28;20811;-66
2022/03/06 13:54:11;;;;;;;13.50;10.57;;;9.30;50.00;;;;;;4976841;28;20466;-65
2022/03/06 13:56:41;;;;;;;12.07;10.87;;;9.00;51.10;;;;;;4980121;28;20451;-65
2022/03/06 13:59:11;;;;;;;10.73;9.73;;;8.90;51.10;;;;;;4976708;28;20447;-66
2022/03/06 14:01:39;;;;;;;11.10;9.80;;;8.70;51.30;;;;;;4982396;28;20541;-66
2022/03/06 14:04:08;;;;;;;13.07;9.03;;;8.50;51.10;;;;;;4975360;28;20830;-66
2022/03/06 14:06:40;;;;;;;10.43;9.43;;;8.50;52.00;;;;;;4975179;28;20459;-66
2022/03/06 14:09:25;;;;;;;10.90;9.90;;;8.50;51.40;;;;;;4974833;28;21084;-66
2022/03/06 14:12:06;;;;;;;11.37;9.93;;;8.40;52.10;;;;;;4975264;28;20478;-66
2022/03/06 14:14:37;;;;;;;10.07;9.07;;;8.20;52.60;;;;;;4974831;28;20443;-65
2022/03/06 14:17:05;;;;;;;12.33;9.30;;;8.30;52.70;;;;;;4974922;28;20455;-65
2022/03/06 14:19:32;;;;;;;12.13;10.10;;;8.40;52.80;;;;;;4974892;28;20517;-65
2022/03/06 14:21:59;;;;;;;10.50;9.50;;;8.40;53.40;;;;;;4974919;28;20529;-65
2022/03/06 14:24:28;;;;;;;11.50;10.17;;;8.50;53.50;;;;;;4975128;28;20462;-65
2022/03/06 14:26:55;;;;;;;11.20;10.10;;;8.40;53.40;;;;;;4974948;28;20455;-65
2022/03/06 14:29:24;;;;;;;11.63;10.43;;;8.40;53.20;;;;;;4974968;28;20486;-66
2022/03/06 14:31:52;;;;;;;10.00;9.03;;;8.20;52.40;;;;;;4974605;28;20982;-66
2022/03/06 14:34:20;;;;;;;10.80;9.70;;;8.00;53.50;;;;;;4974888;28;20463;-66
2022/03/06 14:36:46;;;;;;;16.93;9.80;;;7.90;54.20;;;;;;4974841;28;20450;-65
2022/03/06 14:39:14;;;;;;;11.37;10.07;;;7.70;53.80;;;;;;4974893;28;20459;-66
2022/03/06 14:41:42;;;;;;;13.73;10.60;;;7.60;54.10;;;;;;4975105;28;20474;-66
2022/03/06 14:44:10;;;;;;;14.00;10.00;;;7.40;54.00;;;;;;4974789;28;20455;-65
2022/03/06 14:46:39;;;;;;;10.67;9.63;;;7.40;54.10;;;;;;4976409;28;20468;-66
2022/03/06 14:49:06;;;;;;;11.17;9.83;;;7.30;53.80;;;;;;4975248;28;20481;-65
2022/03/06 14:51:33;;;;;;;11.40;10.23;;;7.00;54.10;;;;;;4975534;28;20532;-65
2022/03/06 14:54:03;;;;;;;10.97;9.90;;;7.10;54.40;;;;;;4986474;28;20455;-65
2022/03/06 14:56:32;;;;;;;11.37;10.27;;;7.00;54.70;;;;;;4984019;28;20854;-65
2022/03/06 14:59:01;;;;;;;10.30;9.40;;;7.10;54.00;;;;;;4975335;28;20451;-65
2022/03/06 15:01:28;;;;;;;11.53;10.33;;;7.10;55.00;;;;;;4974199;28;20573;-66
2022/03/06 15:03:55;;;;;;;10.40;9.27;;;6.90;55.10;;;;;;4974552;28;20863;-66
2022/03/06 15:06:22;;;;;;;10.73;9.63;;;6.90;55.00;;;;;;4974773;28;20466;-65
2022/03/06 15:08:49;;;;;;;10.73;9.20;;;6.90;55.40;;;;;;4976317;28;20482;-66
2022/03/06 15:11:16;;;;;;;11.00;9.60;;;7.00;55.80;;;;;;4978098;28;21001;-65
2022/03/06 15:13:43;;;;;;;11.10;9.90;;;7.10;54.70;;;;;;4978541;28;20458;-67
2022/03/06 15:16:12;;;;;;;10.90;9.83;;;7.20;55.70;;;;;;4978236;28;20465;-67
2022/03/06 15:18:40;;;;;;;10.13;9.20;;;7.20;55.10;;;;;;4987095;28;20505;-68
2022/03/06 15:21:07;;;;;;;9.77;8.70;;;7.10;55.20;;;;;;4982583;28;20907;-67
2022/03/06 15:23:34;;;;;;;9.60;8.70;;;7.00;55.00;;;;;;4978811;28;20465;-68
2022/03/06 15:26:01;;;;;;;10.87;9.73;;;7.00;55.20;;;;;;4978171;28;20485;-67
2022/03/06 15:28:29;;;;;;;10.30;9.10;;;6.90;55.20;;;;;;4984667;28;20513;-67
2022/03/06 15:30:56;;;;;;;12.43;10.40;;;6.80;55.50;;;;;;4981462;28;20474;-68
2022/03/06 15:33:24;;;;;;;10.87;9.50;;;6.70;55.90;;;;;;4978289;28;20501;-66
2022/03/06 15:36:26;;;;;;;10.67;9.60;;;6.60;55.90;;;;;;4978261;28;20857;-68
2022/03/06 15:38:53;;;;;;;10.97;9.97;;;6.50;55.50;;;;;;4978925;28;20449;-65
2022/03/06 15:41:19;;;;;;;9.97;9.00;;;6.40;55.20;;;;;;4978154;28;20487;-67
2022/03/06 15:43:46;;;;;;;11.50;9.60;;;6.20;55.50;;;;;;4977426;28;20844;-67
2022/03/06 15:46:13;;;;;;;10.43;9.40;;;6.20;55.90;;;;;;4977797;28;20512;-68
2022/03/06 15:48:41;;;;;;;10.60;9.40;;;6.20;55.70;;;;;;4977768;28;20481;-66
2022/03/06 15:51:08;;;;;;;12.33;9.50;;;6.20;56.00;;;;;;4977631;28;20474;-67
2022/03/06 15:53:34;;;;;;;11.07;9.97;;;6.20;56.30;;;;;;4977525;28;20850;-65
2022/03/06 15:56:01;;;;;;;10.50;9.50;;;6.30;56.10;;;;;;4977533;28;20459;-65
2022/03/06 15:58:29;;;;;;;11.90;10.67;;;6.30;57.00;;;;;;4977446;28;20462;-65
2022/03/06 16:00:56;;;;;;;12.20;10.73;;;6.30;56.60;;;;;;4977245;28;20482;-66
2022/03/06 16:03:22;;;;;;;11.30;10.00;;;6.30;56.90;;;;;;4977474;28;20462;-65
2022/03/06 16:05:50;;;;;;;12.27;9.87;;;6.10;56.30;;;;;;4978044;28;20465;-65
2022/03/06 16:08:17;;;;;;;12.13;10.13;;;6.10;56.40;;;;;;4977008;28;20992;-66
2022/03/06 16:10:44;;;;;;;13.23;10.83;;;5.90;57.10;;;;;;4977099;28;20485;-66
2022/03/06 16:13:11;;;;;;;11.27;10.17;;;5.80;56.80;;;;;;4977270;28;20853;-66
2022/03/06 16:15:38;;;;;;;11.47;10.40;;;5.60;57.00;;;;;;4977759;28;20459;-66
2022/03/06 16:18:05;;;;;;;13.50;11.70;;;5.60;57.40;;;;;;4976861;28;20952;-65
2022/03/06 16:20:32;;;;;;;12.70;10.57;;;5.60;57.50;;;;;;4976604;28;20450;-65
2022/03/06 16:23:02;;;;;;;12.90;10.87;;;5.40;57.20;;;;;;4977312;28;20462;-65
2022/03/06 16:25:28;;;;;;;13.23;11.83;;;5.40;57.60;;;;;;4977462;28;20471;-65
2022/03/06 16:27:55;;;;;;;12.40;11.13;;;5.40;57.70;;;;;;4977275;28;20454;-65
2022/03/06 16:30:22;;;;;;;12.30;11.10;;;5.50;58.10;;;;;;4977369;28;20467;-66
2022/03/06 16:32:49;;;;;;;11.70;10.13;;;5.50;57.90;;;;;;4977456;28;20462;-68
2022/03/06 16:35:15;;;;;;;12.10;10.90;;;5.50;58.10;;;;;;4976770;28;20938;-67
2022/03/06 16:37:42;;;;;;;12.10;10.90;;;5.40;58.00;;;;;;4977272;28;20462;-67
2022/03/06 16:40:13;;;;;;;12.30;11.00;;;5.50;58.10;;;;;;4977422;28;20455;-66
2022/03/06 16:42:40;;;;;;;11.30;10.20;;;5.50;58.50;;;;;;4978141;28;20487;-66
2022/03/06 16:45:08;;;;;;;13.10;11.57;;;5.40;58.30;;;;;;4976841;28;20554;-66
2022/03/06 16:47:35;;;;;;;12.13;10.80;;;5.40;58.10;;;;;;4976591;28;20941;-66
2022/03/06 16:50:03;;;;;;;11.80;10.70;;;5.40;58.30;;;;;;4976659;28;20490;-66
2022/03/06 16:52:30;;;;;;;14.77;13.20;;;5.50;58.10;;;;;;4976574;28;20533;-66
2022/03/06 16:54:56;;;;;;;11.70;10.50;;;5.50;58.00;;;;;;4977218;28;20485;-66
2022/03/06 16:57:24;;;;;;;13.30;11.07;;;5.30;57.40;;;;;;4976859;28;20465;-66
2022/03/06 16:59:51;;;;;;;14.80;11.90;;;5.10;58.00;;;;;;4976900;28;20953;-65
2022/03/06 17:02:18;;;;;;;12.50;11.27;;;4.90;58.40;;;;;;4976930;28;20486;-64
2022/03/06 17:04:45;;;;;;;13.87;10.90;;;5.00;58.50;;;;;;4989370;28;20462;-66
2022/03/06 17:07:11;;;;;;;11.70;10.53;;;5.00;58.10;;;;;;4985333;28;20445;-66
2022/03/06 17:09:38;;;;;;;14.70;11.03;;;4.80;58.00;;;;;;4976627;28;20489;-65
2022/03/06 17:12:06;;;;;;;13.00;11.70;;;4.80;58.80;;;;;;4976461;28;20596;-65
2022/03/06 17:14:34;;;;;;;12.93;11.63;;;4.80;58.60;;;;;;4976410;28;20471;-65
2022/03/06 17:17:01;;;;;;;11.90;10.30;;;4.80;58.60;;;;;;4976267;28;20859;-66
2022/03/06 17:19:28;;;;;;;12.20;11.00;;;4.90;58.60;;;;;;4976371;28;20939;-65
2022/03/06 17:21:55;;;;;;;11.83;10.80;;;4.90;58.60;;;;;;4978984;28;20530;-66
2022/03/06 17:24:22;;;;;;;12.07;10.87;;;4.90;58.00;;;;;;4977982;28;20458;-66
2022/03/06 17:26:49;;;;;;;11.60;10.50;;;4.90;57.80;;;;;;4976485;28;20474;-65
2022/03/06 17:29:16;;;;;;;12.03;10.87;;;5.00;57.20;;;;;;4975929;28;20581;-66
2022/03/06 17:31:45;;;;;;;12.37;10.70;;;4.70;57.30;;;;;;4975061;28;20485;-66
2022/03/06 17:34:13;;;;;;;11.30;10.20;;;4.70;57.90;;;;;;4975728;28;20818;-66
2022/03/06 17:36:40;;;;;;;14.17;11.10;;;4.80;58.20;;;;;;4975862;28;20464;-65
2022/03/06 17:39:06;;;;;;;12.20;10.90;;;4.80;58.00;;;;;;4975925;28;20461;-66
2022/03/06 17:41:33;;;;;;;11.00;9.90;;;4.70;57.70;;;;;;4975540;28;20486;-67
2022/03/06 17:44:01;;;;;;;12.27;10.87;;;4.80;57.40;;;;;;4975817;28;20461;-66